createdAt,value
2019-02-16T00:01:26.512Z,52.40
2019-02-16T00:04:07.103Z,52.00
2019-02-16T00:06:49.239Z,51.80
2019-02-16T00:09:30.175Z,52.70
2019-02-16T00:12:13.401Z,52.80
2019-02-16T00:14:56.299Z,53.70
2019-02-16T00:17:36.008Z,52.10
2019-02-16T00:20:19.161Z,52.90
2019-02-16T00:23:02.513Z,52.40
2019-02-16T00:25:42.847Z,52.10
2019-02-16T00:28:24.564Z,52.10
2019-02-16T00:31:09.372Z,52.90
2019-02-16T00:33:51.568Z,52.70
2019-02-16T00:36:34.444Z,52.60
2019-02-16T00:39:20.079Z,53.80
2019-02-16T00:42:03.874Z,55.10
2019-02-16T00:45:04.669Z,55.20
2019-02-16T00:47:49.857Z,58.10
2019-02-16T00:50:30.426Z,53.90
2019-02-16T00:53:13.161Z,53.60
2019-02-16T00:55:53.004Z,52.70
2019-02-16T00:58:34.516Z,53.40
2019-02-16T01:01:14.604Z,52.90
2019-02-16T01:03:57.634Z,55.50
2019-02-16T01:06:40.667Z,54.60
2019-02-16T01:09:23.804Z,56.50
2019-02-16T01:12:06.037Z,54.30
2019-02-16T01:14:51.298Z,56.10
2019-02-16T01:17:37.017Z,53.90
2019-02-16T01:20:22.222Z,53.00
2019-02-16T01:23:04.680Z,53.00
2019-02-16T01:25:43.640Z,55.30
2019-02-16T01:28:36.876Z,52.90
2019-02-16T01:31:22.579Z,52.00
2019-02-16T01:34:07.513Z,52.00
2019-02-16T01:36:57.750Z,51.40
2019-02-16T01:39:41.721Z,51.40
2019-02-16T01:42:21.702Z,51.60
2019-02-16T01:45:06.659Z,51.40
2019-02-16T01:47:53.777Z,51.60
2019-02-16T01:50:41.231Z,51.70
2019-02-16T01:53:22.223Z,52.60
2019-02-16T01:56:03.965Z,54.30
2019-02-16T01:58:55.121Z,58.00
2019-02-16T02:01:58.110Z,54.80
2019-02-16T02:05:00.564Z,53.30
2019-02-16T02:07:56.812Z,57.60
2019-02-16T02:10:40.516Z,57.70
2019-02-16T02:13:25.470Z,57.60
2019-02-16T02:16:16.363Z,55.10
2019-02-16T02:19:05.812Z,53.00
2019-02-16T02:21:48.682Z,53.80
2019-02-16T02:24:46.330Z,53.60
2019-02-16T02:27:35.245Z,53.40
2019-02-16T02:30:19.109Z,52.70
2019-02-16T02:32:59.417Z,56.40
2019-02-16T02:35:54.891Z,54.00
2019-02-16T02:38:58.038Z,52.60
2019-02-16T02:41:46.216Z,53.10
2019-02-16T02:44:38.782Z,53.40
2019-02-16T02:47:27.448Z,54.30
2019-02-16T02:50:08.052Z,56.10
2019-02-16T02:52:56.438Z,55.30
2019-02-16T02:55:51.463Z,53.50
2019-02-16T02:58:48.267Z,53.20
2019-02-16T03:01:33.354Z,57.10
2019-02-16T03:04:16.864Z,57.50
2019-02-16T03:07:06.457Z,54.70
2019-02-16T03:09:54.288Z,56.40
2019-02-16T03:12:38.005Z,56.50
2019-02-16T03:15:20.402Z,57.70
2019-02-16T03:18:14.314Z,57.30
2019-02-16T03:21:11.483Z,56.00
2019-02-16T03:24:02.139Z,55.20
2019-02-16T03:26:52.677Z,53.40
2019-02-16T03:30:06.730Z,56.10
2019-02-16T03:33:18.897Z,55.90
2019-02-16T03:36:38.801Z,53.50
2019-02-16T03:39:35.876Z,53.70
2019-02-16T03:42:24.353Z,53.50
2019-02-16T03:45:10.519Z,55.20
2019-02-16T03:48:07.728Z,55.50
2019-02-16T03:51:04.939Z,55.20
2019-02-16T03:53:51.916Z,54.70
2019-02-16T03:56:38.835Z,54.50
2019-02-16T03:59:28.711Z,54.10
2019-02-16T04:02:14.570Z,56.00
2019-02-16T04:05:12.854Z,55.60
2019-02-16T04:08:12.846Z,55.50
2019-02-16T04:10:56.886Z,54.60
2019-02-16T04:13:52.486Z,56.00
2019-02-16T04:16:37.410Z,55.60
2019-02-16T04:19:25.408Z,55.50
2019-02-16T04:22:24.719Z,54.00
2019-02-16T04:25:10.080Z,57.70
2019-02-16T04:27:57.649Z,54.40
2019-02-16T04:30:47.755Z,55.70
2019-02-16T04:33:32.418Z,55.80
2019-02-16T04:36:16.192Z,55.40
2019-02-16T04:39:03.871Z,55.80
2019-02-16T04:41:47.277Z,57.10
2019-02-16T04:44:46.868Z,54.30
2019-02-16T04:47:33.739Z,56.10
2019-02-16T04:50:15.785Z,57.60
2019-02-16T04:53:20.901Z,58.20
2019-02-16T04:56:12.218Z,57.30
2019-02-16T04:59:04.866Z,54.00
2019-02-16T05:01:58.891Z,53.60
2019-02-16T05:05:01.697Z,54.80
2019-02-16T05:08:15.767Z,55.50
2019-02-16T05:11:17.568Z,54.70
2019-02-16T05:14:06.505Z,55.70
2019-02-16T05:16:57.358Z,54.30
2019-02-16T05:19:59.174Z,54.70
2019-02-16T05:22:50.280Z,54.50
2019-02-16T05:25:53.301Z,54.80
2019-02-16T05:28:42.923Z,54.60
2019-02-16T05:31:27.500Z,54.30
2019-02-16T05:34:18.768Z,57.90
2019-02-16T05:37:09.460Z,55.10
2019-02-16T05:40:09.577Z,53.90
2019-02-16T05:43:15.385Z,53.20
2019-02-16T05:46:08.557Z,56.70
2019-02-16T05:48:53.070Z,56.90
2019-02-16T05:51:42.357Z,59.10
2019-02-16T05:54:45.626Z,56.30
2019-02-16T05:57:48.362Z,53.10
2019-02-16T06:00:36.473Z,56.00
2019-02-16T06:03:31.169Z,54.00
2019-02-16T06:06:24.011Z,53.70
2019-02-16T06:09:18.832Z,52.80
2019-02-16T06:12:16.275Z,55.10
2019-02-16T06:15:38.616Z,55.60
2019-02-16T06:18:33.211Z,56.50
2019-02-16T06:21:28.120Z,59.80
2019-02-16T06:24:15.181Z,54.80
2019-02-16T06:27:12.253Z,54.50
2019-02-16T06:30:08.208Z,53.00
2019-02-16T06:33:24.812Z,54.10
2019-02-16T06:36:37.307Z,56.40
2019-02-16T06:39:35.049Z,55.70
2019-02-16T06:42:33.282Z,53.40
2019-02-16T06:45:35.930Z,53.50
2019-02-16T06:48:41.125Z,52.80
2019-02-16T06:51:40.818Z,54.00
2019-02-16T06:54:39.009Z,56.20
2019-02-16T06:57:33.146Z,53.90
2019-02-16T07:00:26.306Z,54.60
2019-02-16T07:03:15.360Z,53.10
2019-02-16T07:06:16.212Z,52.60
2019-02-16T07:09:10.275Z,53.50
2019-02-16T07:12:03.854Z,53.40
2019-02-16T07:15:19.394Z,52.90
2019-02-16T07:18:34.340Z,52.50
2019-02-16T07:21:32.853Z,53.20
2019-02-16T07:24:22.709Z,55.20
2019-02-16T07:27:11.917Z,54.50
2019-02-16T07:30:18.083Z,54.50
2019-02-16T07:33:19.999Z,52.50
2019-02-16T07:36:08.760Z,52.20
2019-02-16T07:38:57.647Z,52.40
2019-02-16T07:41:45.653Z,52.80
2019-02-16T07:45:04.332Z,53.20
2019-02-16T07:48:35.264Z,53.30
2019-02-16T07:51:53.168Z,53.70
2019-02-16T07:54:43.417Z,53.40
2019-02-16T07:58:09.484Z,52.00
2019-02-16T08:01:32.237Z,52.10
2019-02-16T08:04:39.421Z,52.50
2019-02-16T08:07:56.207Z,52.10
2019-02-16T08:10:59.511Z,52.80
2019-02-16T08:14:10.258Z,53.40
2019-02-16T08:17:32.526Z,52.30
2019-02-16T08:20:50.245Z,52.60
2019-02-16T08:24:10.326Z,53.30
2019-02-16T08:27:17.196Z,52.20
2019-02-16T08:30:37.030Z,52.40
2019-02-16T08:34:15.307Z,53.70
2019-02-16T08:37:20.058Z,52.50
2019-02-16T08:40:32.721Z,52.10
2019-02-16T08:43:41.133Z,52.20
2019-02-16T08:47:11.084Z,51.60
2019-02-16T08:50:23.304Z,52.00
2019-02-16T08:53:49.693Z,52.10
2019-02-16T08:57:02.158Z,51.60
2019-02-16T09:00:14.281Z,51.40
2019-02-16T09:03:25.440Z,51.60
2019-02-16T09:06:26.426Z,51.50
2019-02-16T09:09:45.315Z,51.50
2019-02-16T09:13:00.289Z,52.00
2019-02-16T09:16:10.415Z,51.80
2019-02-16T09:19:08.060Z,52.40
2019-02-16T09:22:23.846Z,53.10
2019-02-16T09:25:41.381Z,52.40
2019-02-16T09:29:00.064Z,52.30
2019-02-16T09:32:04.851Z,51.80
2019-02-16T09:35:45.797Z,52.70
2019-02-16T09:38:57.871Z,51.80
2019-02-16T09:42:09.725Z,52.40
2019-02-16T09:45:11.909Z,53.00
2019-02-16T09:48:09.835Z,52.20
2019-02-16T09:51:12.435Z,53.30
2019-02-16T09:54:15.637Z,53.20
2019-02-16T09:57:12.540Z,52.50
2019-02-16T10:00:09.315Z,51.80
2019-02-16T10:02:59.245Z,51.70
2019-02-16T10:06:12.718Z,51.70
2019-02-16T10:09:40.853Z,52.70
2019-02-16T10:12:48.837Z,52.40
2019-02-16T10:15:48.343Z,51.40
2019-02-16T10:19:01.414Z,51.70
2019-02-16T10:21:56.678Z,51.60
2019-02-16T10:24:56.806Z,51.70
2019-02-16T10:28:00.292Z,52.00
2019-02-16T10:31:00.839Z,51.40
2019-02-16T10:33:57.863Z,51.70
2019-02-16T10:37:13.718Z,51.40
2019-02-16T10:40:22.917Z,51.20
2019-02-16T10:43:27.906Z,51.50
2019-02-16T10:46:23.162Z,52.20
2019-02-16T10:49:51.613Z,51.00
2019-02-16T10:53:00.345Z,50.70
2019-02-16T10:56:02.126Z,51.00
2019-02-16T10:59:15.055Z,50.90
2019-02-16T11:02:22.775Z,50.60
2019-02-16T11:05:28.849Z,49.90
2019-02-16T11:08:45.218Z,50.10
2019-02-16T11:11:46.543Z,50.20
2019-02-16T11:15:02.511Z,50.40
2019-02-16T11:17:58.955Z,49.50
2019-02-16T11:21:11.775Z,50.00
2019-02-16T11:24:24.962Z,49.70
2019-02-16T11:27:29.442Z,49.70
2019-02-16T11:30:47.505Z,49.80
2019-02-16T11:33:52.252Z,49.60
2019-02-16T11:37:02.125Z,49.70
2019-02-16T11:40:09.753Z,49.80
2019-02-16T11:43:32.334Z,49.70
2019-02-16T11:46:48.332Z,49.70
2019-02-16T11:50:24.119Z,49.60
2019-02-16T11:53:45.756Z,49.90
2019-02-16T11:57:17.225Z,49.30
2019-02-16T12:00:30.326Z,50.90
2019-02-16T12:03:42.901Z,50.20
2019-02-16T12:06:58.147Z,49.50
2019-02-16T12:10:04.224Z,50.00
2019-02-16T12:13:25.212Z,49.50
2019-02-16T12:16:36.163Z,50.00
2019-02-16T12:19:42.687Z,50.00
2019-02-16T12:23:21.794Z,49.50
2019-02-16T12:26:27.441Z,49.80
2019-02-16T12:29:56.130Z,49.80
2019-02-16T12:33:13.635Z,50.40
2019-02-16T12:36:26.978Z,50.30
2019-02-16T12:39:44.040Z,50.10
2019-02-16T12:43:16.158Z,50.20
2019-02-16T12:46:45.219Z,50.30
2019-02-16T12:50:13.960Z,50.30
2019-02-16T12:53:34.290Z,50.40
2019-02-16T12:56:46.759Z,50.50
2019-02-16T13:00:04.004Z,51.10
2019-02-16T13:03:53.168Z,51.10
2019-02-16T13:07:03.451Z,50.90
2019-02-16T13:10:22.687Z,51.10
2019-02-16T13:14:04.533Z,51.40
2019-02-16T13:17:27.199Z,51.20
2019-02-16T13:20:45.351Z,51.10
2019-02-16T13:24:11.344Z,51.00
2019-02-16T13:27:42.938Z,51.70
2019-02-16T13:31:05.086Z,51.30
2019-02-16T13:34:38.753Z,51.20
2019-02-16T13:41:23.649Z,51.30
2019-02-16T13:44:42.100Z,51.30
2019-02-16T13:47:47.054Z,51.10
2019-02-16T13:51:05.746Z,51.40
2019-02-16T13:54:21.815Z,51.20
2019-02-16T13:57:52.246Z,51.40
2019-02-16T14:01:08.106Z,51.40
2019-02-16T14:04:21.550Z,51.40
2019-02-16T14:07:31.791Z,51.50
2019-02-16T14:10:56.881Z,51.50
2019-02-16T14:14:32.443Z,51.70
2019-02-16T14:18:02.484Z,51.40
2019-02-16T14:20:59.811Z,51.50
2019-02-16T14:24:34.042Z,51.50
2019-02-16T14:27:39.299Z,51.70
2019-02-16T14:31:03.888Z,51.70
2019-02-16T14:34:22.227Z,51.60
2019-02-16T14:37:41.923Z,51.90
2019-02-16T14:41:12.858Z,51.80
2019-02-16T14:47:50.729Z,51.70
2019-02-16T14:51:16.404Z,51.50
2019-02-16T14:54:28.896Z,51.70
2019-02-16T14:58:00.936Z,51.50
2019-02-16T15:01:19.671Z,51.40
2019-02-16T15:04:53.644Z,51.60
2019-02-16T15:08:19.710Z,51.30
2019-02-16T15:11:40.528Z,51.30
2019-02-16T15:14:39.733Z,51.10
2019-02-16T15:17:40.156Z,51.10
2019-02-16T15:20:52.871Z,51.10
2019-02-16T15:23:58.974Z,51.10
2019-02-16T15:27:09.556Z,50.90
2019-02-16T15:30:15.387Z,51.10
2019-02-16T15:33:39.954Z,50.80
2019-02-16T15:36:58.482Z,50.90
2019-02-16T15:40:11.758Z,50.90
2019-02-16T15:43:12.595Z,51.00
2019-02-16T15:46:24.842Z,51.30
2019-02-16T15:49:20.172Z,51.00
2019-02-16T15:52:16.654Z,50.70
2019-02-16T15:55:39.653Z,50.70
2019-02-16T15:58:39.951Z,50.60
2019-02-16T16:01:56.000Z,50.70
2019-02-16T16:05:16.716Z,50.50
2019-02-16T16:08:16.155Z,50.50
2019-02-16T16:11:44.338Z,50.50
2019-02-16T16:15:02.842Z,50.70
2019-02-16T16:18:32.302Z,50.80
2019-02-16T16:21:56.642Z,50.90
2019-02-16T16:28:49.382Z,51.30
2019-02-16T16:32:08.052Z,51.40
2019-02-16T16:38:53.006Z,51.70
2019-02-16T16:45:58.051Z,52.40
2019-02-16T16:49:08.657Z,52.30
2019-02-16T16:52:30.918Z,52.60
2019-02-16T16:55:38.935Z,53.00
2019-02-16T16:58:58.563Z,53.20
2019-02-16T17:02:20.139Z,53.10
2019-02-16T17:05:32.162Z,53.30
2019-02-16T17:08:48.131Z,53.40
2019-02-16T17:12:16.716Z,53.70
2019-02-16T17:15:43.242Z,53.80
2019-02-16T17:18:42.599Z,54.20
2019-02-16T17:22:05.190Z,54.40
2019-02-16T17:25:16.704Z,54.80
2019-02-16T17:28:17.942Z,55.10
2019-02-16T17:31:14.849Z,55.20
2019-02-16T17:34:23.235Z,55.60
2019-02-16T17:37:24.799Z,55.80
2019-02-16T17:40:26.060Z,56.00
2019-02-16T17:43:32.769Z,56.20
2019-02-16T17:46:42.145Z,56.50
2019-02-16T17:49:55.673Z,57.00
2019-02-16T17:53:10.680Z,57.30
2019-02-16T17:56:24.045Z,57.70
2019-02-16T17:59:27.051Z,58.10
2019-02-16T18:02:38.756Z,58.40
2019-02-16T18:05:43.159Z,58.70
2019-02-16T18:08:51.283Z,59.40
2019-02-16T18:11:48.600Z,59.80
2019-02-16T18:14:51.415Z,60.30
2019-02-16T18:18:04.601Z,60.70
2019-02-16T18:21:06.052Z,61.30
2019-02-16T18:24:25.650Z,61.60
2019-02-16T18:27:21.322Z,62.80
2019-02-16T18:30:20.326Z,62.50
2019-02-16T18:33:19.049Z,62.80
2019-02-16T18:36:20.147Z,63.40
2019-02-16T18:39:13.487Z,63.70
2019-02-16T18:42:04.546Z,64.20
2019-02-16T18:45:16.751Z,64.50
2019-02-16T18:48:24.622Z,64.50
2019-02-16T18:51:35.391Z,64.80
2019-02-16T18:54:25.804Z,65.10
2019-02-16T18:57:25.370Z,65.70
2019-02-16T19:00:40.324Z,65.90
2019-02-16T19:03:44.873Z,65.90
2019-02-16T19:06:31.005Z,66.20
2019-02-16T19:09:29.437Z,66.10
2019-02-16T19:12:18.569Z,66.20
2019-02-16T19:15:17.003Z,65.90
2019-02-16T19:18:13.692Z,66.00
2019-02-16T19:21:21.213Z,66.20
2019-02-16T19:24:18.252Z,66.20
2019-02-16T19:27:20.804Z,66.70
2019-02-16T19:30:22.309Z,66.40
2019-02-16T19:33:17.239Z,66.60
2019-02-16T19:36:12.906Z,66.80
2019-02-16T19:39:04.318Z,67.00
2019-02-16T19:42:12.943Z,67.20
2019-02-16T19:45:15.691Z,67.00
2019-02-16T19:48:18.410Z,67.00
2019-02-16T19:51:26.837Z,66.60
2019-02-16T19:54:13.915Z,67.00
2019-02-16T19:57:26.418Z,66.60
2019-02-16T20:00:18.401Z,66.80
2019-02-16T20:03:12.730Z,66.50
2019-02-16T20:06:11.062Z,66.60
2019-02-16T20:08:59.269Z,67.10
2019-02-16T20:11:54.286Z,67.30
2019-02-16T20:14:43.360Z,67.30
2019-02-16T20:17:26.792Z,66.90
2019-02-16T20:20:23.147Z,67.10
2019-02-16T20:23:21.152Z,66.80
2019-02-16T20:26:17.629Z,66.90
2019-02-16T20:29:24.214Z,66.80
2019-02-16T20:32:34.001Z,66.70
2019-02-16T20:35:31.762Z,66.60
2019-02-16T20:38:21.210Z,66.90
2019-02-16T20:41:15.299Z,66.70
2019-02-16T20:44:24.428Z,67.30
2019-02-16T20:47:29.423Z,67.30
2019-02-16T20:50:23.338Z,67.20
2019-02-16T20:53:15.395Z,67.40
2019-02-16T20:56:11.907Z,67.60
2019-02-16T20:59:10.334Z,67.50
2019-02-16T21:02:10.199Z,67.40
2019-02-16T21:05:09.749Z,67.50
2019-02-16T21:08:03.607Z,67.20
2019-02-16T21:11:00.593Z,67.30
2019-02-16T21:14:11.392Z,67.10
2019-02-16T21:17:29.214Z,67.50
2019-02-16T21:20:28.929Z,67.40
2019-02-16T21:23:27.135Z,67.50
2019-02-16T21:26:39.707Z,67.10
2019-02-16T21:29:34.031Z,67.90
2019-02-16T21:32:28.468Z,67.80
2019-02-16T21:35:26.644Z,67.70
2019-02-16T21:38:31.458Z,67.80
2019-02-16T21:41:30.770Z,67.90
2019-02-16T21:44:22.636Z,67.70
2019-02-16T21:47:23.519Z,67.90
2019-02-16T21:50:23.335Z,68.10
2019-02-16T21:53:29.774Z,67.90
2019-02-16T21:56:27.089Z,67.90
2019-02-16T21:59:27.488Z,67.90
2019-02-16T22:02:38.504Z,67.90
2019-02-16T22:05:30.340Z,67.60
2019-02-16T22:08:36.244Z,67.90
2019-02-16T22:11:35.299Z,68.30
2019-02-16T22:14:16.922Z,68.20
2019-02-16T22:16:57.778Z,68.20
2019-02-16T22:19:40.305Z,68.20
2019-02-16T22:22:24.078Z,67.90
2019-02-16T22:25:04.770Z,68.00
2019-02-16T22:27:45.816Z,68.00
2019-02-16T22:30:26.499Z,68.10
2019-02-16T22:33:07.825Z,67.90
2019-02-16T22:35:48.450Z,67.60
2019-02-16T22:38:31.222Z,68.10
2019-02-16T22:41:12.849Z,68.00
2019-02-16T22:43:56.216Z,68.30
2019-02-16T22:46:38.507Z,68.20
2019-02-16T22:49:20.205Z,68.10
2019-02-16T22:52:02.315Z,68.10
2019-02-16T22:54:43.116Z,68.00
2019-02-16T22:57:23.871Z,67.90
2019-02-16T23:00:04.936Z,67.90
2019-02-16T23:02:43.052Z,67.80
2019-02-16T23:05:22.219Z,67.80
2019-02-16T23:08:04.490Z,67.90
2019-02-16T23:10:44.607Z,67.90
2019-02-16T23:13:25.410Z,68.10
2019-02-16T23:16:04.787Z,68.60
2019-02-16T23:18:48.354Z,68.50
2019-02-16T23:21:31.663Z,68.30
2019-02-16T23:24:10.847Z,68.40
2019-02-16T23:26:50.225Z,68.30
2019-02-16T23:29:31.300Z,68.30
2019-02-16T23:32:12.429Z,68.70
2019-02-16T23:34:53.087Z,68.60
2019-02-16T23:37:38.221Z,68.10
2019-02-16T23:40:18.607Z,68.30
2019-02-16T23:43:02.892Z,68.40
2019-02-16T23:45:44.432Z,67.80
2019-02-16T23:48:26.389Z,67.50
2019-02-16T23:51:09.336Z,67.10
2019-02-16T23:53:49.191Z,67.50
2019-02-16T23:56:30.846Z,67.60
2019-02-16T23:59:11.534Z,67.70
